Portada
METAR-TAF:

METAR-TAF

Aeropuertos :

León, España

Aeropuerto de León

latitud: 42-35N, longitud: 005-39W, altitud: 926 m

Observación

El informe se hizo hace 41 minutos, a las 16:00 UTC
Viento 9 kt del sur, variando entre sureste y suroeste
Temperatura 20°C
Humedad 60%
Presión 1016 hPa
Visibilidad 10 km o más
Escasas nubes a una altura de 3500 ft

METAR: LELN 281600Z 18009KT 140V230 9999 FEW035 20/12 Q1016

Hora: 18:41 (16:41 UTC)

Pronóstico

El informe se hizo hace 2 horas y 41 minutos, a las 14:00 UTC
Pronóstico válido del 28 a las 15 UTC al 28 a las 24 UTC
Viento 8 kt del sur
Visibilidad 10 km o más
Nubes dispersas a una altura de 4000 ft
Probabilidad 40% :
Temporalmente
del 28 a las 15 UTC al 28 a las 18 UTC
Viento 15 kt con dirección variable con ráfagas de 25 kt
Nubes dispersas a una altura de 4000 ft, Cumulonimbus.
tormenta, chaparrones de lluvia

TAF: LELN 281400Z 2815/2824 19008KT 9999 SCT040 PROB40 TEMPO 2815/2818 VRB15G25KT TS SHRA SCT040CB

Observaciones y pronósticos meteorológicos de más de 4000 aeropuertos (mensajes METAR y TAF).

Los puntos amarillos y rojos representan las estaciones disponibles.

Ponga el ratón en el punto deseado para ver el nombre de la estación.

Haga clic para ver las observaciones y los pronósticos meteorológicos.

Para cambiar el mapa : haga clic en los botones verdes con una cruz de color negro para hacer un zoom, en el botón verde con un guión para alejar o en las flechas verdes para mapas adyacentes.


METAR-TAF: